sensor_id;sensor_type;location;lat;lon;timestamp;P1;durP1;ratioP1;P2;durP2;ratioP2
55732;SDS011;41637;52.364;9.910;2022-09-21T00:01:20;10.70;;;5.00;;
55732;SDS011;41637;52.364;9.910;2022-09-21T00:03:56;9.60;;;5.00;;
55732;SDS011;41637;52.364;9.910;2022-09-21T00:06:27;9.60;;;4.80;;
55732;SDS011;41637;52.364;9.910;2022-09-21T00:08:56;11.20;;;5.10;;
55732;SDS011;41637;52.364;9.910;2022-09-21T00:11:25;9.50;;;5.10;;
55732;SDS011;41637;52.364;9.910;2022-09-21T00:14:15;9.30;;;4.70;;
55732;SDS011;41637;52.364;9.910;2022-09-21T00:16:40;8.80;;;4.50;;
55732;SDS011;41637;52.364;9.910;2022-09-21T00:19:09;7.80;;;4.20;;
55732;SDS011;41637;52.364;9.910;2022-09-21T00:21:35;9.80;;;4.40;;
55732;SDS011;41637;52.364;9.910;2022-09-21T00:24:03;8.50;;;4.60;;
55732;SDS011;41637;52.364;9.910;2022-09-21T00:26:36;8.40;;;4.90;;
55732;SDS011;41637;52.364;9.910;2022-09-21T00:29:02;10.50;;;5.00;;
55732;SDS011;41637;52.364;9.910;2022-09-21T00:31:30;11.00;;;4.80;;
55732;SDS011;41637;52.364;9.910;2022-09-21T00:33:57;11.30;;;5.40;;
55732;SDS011;41637;52.364;9.910;2022-09-21T00:36:25;7.80;;;5.10;;
55732;SDS011;41637;52.364;9.910;2022-09-21T00:38:57;9.50;;;5.00;;
55732;SDS011;41637;52.364;9.910;2022-09-21T00:41:27;9.90;;;5.00;;
55732;SDS011;41637;52.364;9.910;2022-09-21T00:47:06;12.00;;;5.30;;
55732;SDS011;41637;52.364;9.910;2022-09-21T00:49:37;7.90;;;5.20;;
55732;SDS011;41637;52.364;9.910;2022-09-21T00:52:06;12.20;;;4.80;;
55732;SDS011;41637;52.364;9.910;2022-09-21T00:54:38;11.00;;;4.80;;
55732;SDS011;41637;52.364;9.910;2022-09-21T00:57:10;10.80;;;5.30;;
55732;SDS011;41637;52.364;9.910;2022-09-21T00:59:38;8.90;;;5.00;;
55732;SDS011;41637;52.364;9.910;2022-09-21T01:02:06;9.00;;;5.00;;
55732;SDS011;41637;52.364;9.910;2022-09-21T01:04:33;11.90;;;5.50;;
55732;SDS011;41637;52.364;9.910;2022-09-21T01:07:02;10.70;;;5.30;;
55732;SDS011;41637;52.364;9.910;2022-09-21T01:09:31;9.00;;;5.10;;
55732;SDS011;41637;52.364;9.910;2022-09-21T01:12:03;10.70;;;5.20;;
55732;SDS011;41637;52.364;9.910;2022-09-21T01:17:42;8.80;;;4.80;;
55732;SDS011;41637;52.364;9.910;2022-09-21T01:28:59;11.80;;;5.10;;
55732;SDS011;41637;52.364;9.910;2022-09-21T01:31:40;9.50;;;5.30;;
55732;SDS011;41637;52.364;9.910;2022-09-21T01:34:35;9.40;;;5.30;;
55732;SDS011;41637;52.364;9.910;2022-09-21T01:37:10;11.40;;;5.50;;
55732;SDS011;41637;52.364;9.910;2022-09-21T01:39:41;11.20;;;5.40;;
55732;SDS011;41637;52.364;9.910;2022-09-21T01:42:11;11.80;;;5.70;;
55732;SDS011;41637;52.364;9.910;2022-09-21T01:44:41;11.30;;;5.80;;
55732;SDS011;41637;52.364;9.910;2022-09-21T01:47:10;9.70;;;5.40;;
55732;SDS011;41637;52.364;9.910;2022-09-21T01:49:40;12.30;;;6.10;;
55732;SDS011;41637;52.364;9.910;2022-09-21T01:54:49;10.10;;;6.10;;
55732;SDS011;41637;52.364;9.910;2022-09-21T01:57:22;11.70;;;6.50;;
55732;SDS011;41637;52.364;9.910;2022-09-21T01:59:57;12.80;;;6.20;;
55732;SDS011;41637;52.364;9.910;2022-09-21T02:05:07;8.90;;;6.20;;
55732;SDS011;41637;52.364;9.910;2022-09-21T02:07:36;11.70;;;6.30;;
55732;SDS011;41637;52.364;9.910;2022-09-21T02:10:05;11.30;;;6.00;;
55732;SDS011;41637;52.364;9.910;2022-09-21T02:12:36;10.90;;;6.30;;
55732;SDS011;41637;52.364;9.910;2022-09-21T02:15:03;13.00;;;6.60;;
55732;SDS011;41637;52.364;9.910;2022-09-21T02:20:06;12.10;;;6.20;;
55732;SDS011;41637;52.364;9.910;2022-09-21T02:23:17;13.30;;;6.70;;
55732;SDS011;41637;52.364;9.910;2022-09-21T02:28:26;12.50;;;6.90;;
55732;SDS011;41637;52.364;9.910;2022-09-21T02:31:23;13.70;;;6.80;;
55732;SDS011;41637;52.364;9.910;2022-09-21T02:34:15;11.10;;;6.80;;
55732;SDS011;41637;52.364;9.910;2022-09-21T02:36:50;12.50;;;6.90;;
55732;SDS011;41637;52.364;9.910;2022-09-21T02:39:32;12.20;;;7.00;;
55732;SDS011;41637;52.364;9.910;2022-09-21T02:42:07;12.30;;;6.80;;
55732;SDS011;41637;52.364;9.910;2022-09-21T02:50:26;14.30;;;7.80;;
55732;SDS011;41637;52.364;9.910;2022-09-21T02:53:01;14.20;;;8.20;;
55732;SDS011;41637;52.364;9.910;2022-09-21T02:55:32;13.70;;;8.30;;
55732;SDS011;41637;52.364;9.910;2022-09-21T02:58:01;12.20;;;7.90;;
55732;SDS011;41637;52.364;9.910;2022-09-21T03:00:31;16.50;;;8.90;;
55732;SDS011;41637;52.364;9.910;2022-09-21T03:05:47;17.70;;;9.00;;
55732;SDS011;41637;52.364;9.910;2022-09-21T03:08:15;17.90;;;9.20;;
55732;SDS011;41637;52.364;9.910;2022-09-21T03:10:43;16.10;;;9.30;;
55732;SDS011;41637;52.364;9.910;2022-09-21T03:13:12;15.60;;;9.60;;
55732;SDS011;41637;52.364;9.910;2022-09-21T03:15:42;14.10;;;9.00;;
55732;SDS011;41637;52.364;9.910;2022-09-21T03:18:11;14.70;;;8.50;;
55732;SDS011;41637;52.364;9.910;2022-09-21T03:20:38;14.00;;;8.10;;
55732;SDS011;41637;52.364;9.910;2022-09-21T03:23:11;14.80;;;9.10;;
55732;SDS011;41637;52.364;9.910;2022-09-21T03:25:44;18.10;;;9.20;;
55732;SDS011;41637;52.364;9.910;2022-09-21T03:28:11;14.90;;;9.20;;
55732;SDS011;41637;52.364;9.910;2022-09-21T03:30:39;14.10;;;8.70;;
55732;SDS011;41637;52.364;9.910;2022-09-21T03:33:06;15.00;;;8.90;;
55732;SDS011;41637;52.364;9.910;2022-09-21T03:35:33;14.30;;;8.90;;
55732;SDS011;41637;52.364;9.910;2022-09-21T03:38:00;13.30;;;8.90;;
55732;SDS011;41637;52.364;9.910;2022-09-21T03:40:27;14.50;;;8.90;;
55732;SDS011;41637;52.364;9.910;2022-09-21T03:42:54;16.50;;;9.00;;
55732;SDS011;41637;52.364;9.910;2022-09-21T03:45:21;15.10;;;9.00;;
55732;SDS011;41637;52.364;9.910;2022-09-21T03:47:48;16.40;;;9.60;;
55732;SDS011;41637;52.364;9.910;2022-09-21T03:50:14;17.10;;;9.10;;
55732;SDS011;41637;52.364;9.910;2022-09-21T03:52:41;15.50;;;9.20;;
55732;SDS011;41637;52.364;9.910;2022-09-21T03:55:08;13.30;;;9.30;;
55732;SDS011;41637;52.364;9.910;2022-09-21T03:57:35;15.30;;;8.20;;
55732;SDS011;41637;52.364;9.910;2022-09-21T04:00:04;13.60;;;8.20;;
55732;SDS011;41637;52.364;9.910;2022-09-21T04:02:34;30.90;;;8.60;;
55732;SDS011;41637;52.364;9.910;2022-09-21T04:05:02;21.30;;;8.50;;
55732;SDS011;41637;52.364;9.910;2022-09-21T04:07:29;13.10;;;7.80;;
55732;SDS011;41637;52.364;9.910;2022-09-21T04:10:00;12.50;;;7.90;;
55732;SDS011;41637;52.364;9.910;2022-09-21T04:12:31;11.10;;;7.90;;
55732;SDS011;41637;52.364;9.910;2022-09-21T04:14:59;12.90;;;7.10;;
55732;SDS011;41637;52.364;9.910;2022-09-21T04:17:27;14.60;;;7.70;;
55732;SDS011;41637;52.364;9.910;2022-09-21T04:19:54;9.20;;;6.80;;
55732;SDS011;41637;52.364;9.910;2022-09-21T04:22:21;12.30;;;7.50;;
55732;SDS011;41637;52.364;9.910;2022-09-21T04:24:49;13.30;;;7.60;;
55732;SDS011;41637;52.364;9.910;2022-09-21T04:27:17;10.70;;;7.60;;
55732;SDS011;41637;52.364;9.910;2022-09-21T04:29:44;12.70;;;7.90;;
55732;SDS011;41637;52.364;9.910;2022-09-21T04:32:11;13.10;;;7.50;;
55732;SDS011;41637;52.364;9.910;2022-09-21T04:34:38;11.20;;;7.10;;
55732;SDS011;41637;52.364;9.910;2022-09-21T04:37:05;12.60;;;7.70;;
55732;SDS011;41637;52.364;9.910;2022-09-21T04:39:33;11.00;;;7.60;;
55732;SDS011;41637;52.364;9.910;2022-09-21T04:42:00;12.70;;;7.80;;
55732;SDS011;41637;52.364;9.910;2022-09-21T04:44:27;9.50;;;6.80;;
55732;SDS011;41637;52.364;9.910;2022-09-21T04:46:55;10.40;;;7.60;;
55732;SDS011;41637;52.364;9.910;2022-09-21T04:49:22;12.00;;;7.70;;
55732;SDS011;41637;52.364;9.910;2022-09-21T04:51:49;11.50;;;7.40;;
55732;SDS011;41637;52.364;9.910;2022-09-21T04:54:16;15.30;;;8.80;;
55732;SDS011;41637;52.364;9.910;2022-09-21T04:56:43;14.80;;;7.70;;
55732;SDS011;41637;52.364;9.910;2022-09-21T04:59:10;14.30;;;7.90;;
55732;SDS011;41637;52.364;9.910;2022-09-21T05:01:37;13.20;;;8.20;;
55732;SDS011;41637;52.364;9.910;2022-09-21T05:04:04;17.20;;;9.00;;
55732;SDS011;41637;52.364;9.910;2022-09-21T05:06:32;13.30;;;7.70;;
55732;SDS011;41637;52.364;9.910;2022-09-21T05:08:59;14.10;;;7.50;;
55732;SDS011;41637;52.364;9.910;2022-09-21T05:11:44;15.00;;;7.60;;
55732;SDS011;41637;52.364;9.910;2022-09-21T05:14:11;14.60;;;8.30;;
55732;SDS011;41637;52.364;9.910;2022-09-21T05:16:38;14.20;;;8.80;;
55732;SDS011;41637;52.364;9.910;2022-09-21T05:19:05;9.50;;;6.70;;
55732;SDS011;41637;52.364;9.910;2022-09-21T05:21:32;11.10;;;7.00;;
55732;SDS011;41637;52.364;9.910;2022-09-21T05:24:01;9.80;;;7.00;;
55732;SDS011;41637;52.364;9.910;2022-09-21T05:26:28;13.10;;;7.50;;
55732;SDS011;41637;52.364;9.910;2022-09-21T05:28:56;9.80;;;7.00;;
55732;SDS011;41637;52.364;9.910;2022-09-21T05:39:37;13.80;;;8.00;;
55732;SDS011;41637;52.364;9.910;2022-09-21T05:42:04;12.30;;;7.30;;
55732;SDS011;41637;52.364;9.910;2022-09-21T05:44:32;14.90;;;7.70;;
55732;SDS011;41637;52.364;9.910;2022-09-21T05:50:03;12.40;;;8.00;;
55732;SDS011;41637;52.364;9.910;2022-09-21T05:53:07;12.90;;;7.50;;
55732;SDS011;41637;52.364;9.910;2022-09-21T05:55:53;11.40;;;7.30;;
55732;SDS011;41637;52.364;9.910;2022-09-21T06:03:53;11.60;;;7.40;;
55732;SDS011;41637;52.364;9.910;2022-09-21T06:06:21;12.70;;;7.40;;
55732;SDS011;41637;52.364;9.910;2022-09-21T06:08:48;14.90;;;7.60;;
55732;SDS011;41637;52.364;9.910;2022-09-21T06:11:16;12.10;;;7.50;;
55732;SDS011;41637;52.364;9.910;2022-09-21T06:13:43;15.00;;;7.40;;
55732;SDS011;41637;52.364;9.910;2022-09-21T06:16:10;15.30;;;8.00;;
55732;SDS011;41637;52.364;9.910;2022-09-21T06:18:37;16.60;;;8.80;;
55732;SDS011;41637;52.364;9.910;2022-09-21T06:21:05;10.50;;;7.70;;
55732;SDS011;41637;52.364;9.910;2022-09-21T06:23:35;13.60;;;8.30;;
55732;SDS011;41637;52.364;9.910;2022-09-21T06:26:02;13.20;;;8.50;;
55732;SDS011;41637;52.364;9.910;2022-09-21T06:28:29;17.50;;;11.30;;
55732;SDS011;41637;52.364;9.910;2022-09-21T06:30:56;14.60;;;8.80;;
55732;SDS011;41637;52.364;9.910;2022-09-21T06:33:23;15.30;;;8.70;;
55732;SDS011;41637;52.364;9.910;2022-09-21T06:35:55;13.00;;;8.20;;
55732;SDS011;41637;52.364;9.910;2022-09-21T06:38:23;13.00;;;8.10;;
55732;SDS011;41637;52.364;9.910;2022-09-21T06:40:50;14.60;;;8.90;;
55732;SDS011;41637;52.364;9.910;2022-09-21T06:43:17;15.70;;;9.30;;
55732;SDS011;41637;52.364;9.910;2022-09-21T06:45:51;16.80;;;8.60;;
55732;SDS011;41637;52.364;9.910;2022-09-21T06:48:19;20.60;;;11.50;;
55732;SDS011;41637;52.364;9.910;2022-09-21T06:50:46;17.20;;;11.00;;
55732;SDS011;41637;52.364;9.910;2022-09-21T06:53:13;17.10;;;10.00;;
55732;SDS011;41637;52.364;9.910;2022-09-21T06:55:40;25.80;;;15.30;;
55732;SDS011;41637;52.364;9.910;2022-09-21T06:58:07;14.90;;;9.00;;
55732;SDS011;41637;52.364;9.910;2022-09-21T07:00:34;17.60;;;9.70;;
55732;SDS011;41637;52.364;9.910;2022-09-21T07:03:01;16.30;;;9.30;;
55732;SDS011;41637;52.364;9.910;2022-09-21T07:05:28;15.30;;;10.00;;
55732;SDS011;41637;52.364;9.910;2022-09-21T07:07:55;14.10;;;8.80;;
55732;SDS011;41637;52.364;9.910;2022-09-21T07:10:23;12.70;;;9.00;;
55732;SDS011;41637;52.364;9.910;2022-09-21T07:12:50;11.20;;;8.50;;
55732;SDS011;41637;52.364;9.910;2022-09-21T07:15:17;12.60;;;9.20;;
55732;SDS011;41637;52.364;9.910;2022-09-21T07:17:44;13.90;;;9.20;;
55732;SDS011;41637;52.364;9.910;2022-09-21T07:20:17;11.60;;;8.20;;
55732;SDS011;41637;52.364;9.910;2022-09-21T07:22:44;12.20;;;8.70;;
55732;SDS011;41637;52.364;9.910;2022-09-21T07:25:11;12.80;;;8.30;;
55732;SDS011;41637;52.364;9.910;2022-09-21T07:27:38;14.80;;;9.20;;
55732;SDS011;41637;52.364;9.910;2022-09-21T07:30:05;12.10;;;9.00;;
55732;SDS011;41637;52.364;9.910;2022-09-21T07:32:33;16.80;;;9.60;;
55732;SDS011;41637;52.364;9.910;2022-09-21T07:35:01;13.60;;;8.60;;
55732;SDS011;41637;52.364;9.910;2022-09-21T07:37:30;12.20;;;8.00;;
55732;SDS011;41637;52.364;9.910;2022-09-21T07:39:56;12.30;;;8.60;;
55732;SDS011;41637;52.364;9.910;2022-09-21T07:42:23;14.20;;;8.80;;
55732;SDS011;41637;52.364;9.910;2022-09-21T07:44:52;13.60;;;8.20;;
55732;SDS011;41637;52.364;9.910;2022-09-21T07:47:29;15.40;;;9.60;;
55732;SDS011;41637;52.364;9.910;2022-09-21T07:49:56;13.10;;;7.70;;
55732;SDS011;41637;52.364;9.910;2022-09-21T07:52:23;12.00;;;8.20;;
55732;SDS011;41637;52.364;9.910;2022-09-21T07:54:50;12.10;;;6.10;;
55732;SDS011;41637;52.364;9.910;2022-09-21T07:57:16;12.30;;;7.10;;
55732;SDS011;41637;52.364;9.910;2022-09-21T08:00:03;9.80;;;6.30;;
55732;SDS011;41637;52.364;9.910;2022-09-21T08:02:31;13.20;;;6.80;;
55732;SDS011;41637;52.364;9.910;2022-09-21T08:04:58;12.00;;;6.80;;
55732;SDS011;41637;52.364;9.910;2022-09-21T08:07:24;13.10;;;6.80;;
55732;SDS011;41637;52.364;9.910;2022-09-21T08:09:53;12.30;;;6.40;;
55732;SDS011;41637;52.364;9.910;2022-09-21T08:12:20;11.70;;;6.60;;
55732;SDS011;41637;52.364;9.910;2022-09-21T08:14:47;16.30;;;9.80;;
55732;SDS011;41637;52.364;9.910;2022-09-21T08:17:15;10.30;;;5.50;;
55732;SDS011;41637;52.364;9.910;2022-09-21T08:19:42;8.90;;;4.80;;
55732;SDS011;41637;52.364;9.910;2022-09-21T08:22:09;9.40;;;5.10;;
55732;SDS011;41637;52.364;9.910;2022-09-21T08:24:37;11.10;;;5.40;;
55732;SDS011;41637;52.364;9.910;2022-09-21T08:27:06;13.30;;;6.20;;
55732;SDS011;41637;52.364;9.910;2022-09-21T08:29:33;9.70;;;4.60;;
55732;SDS011;41637;52.364;9.910;2022-09-21T08:32:01;8.20;;;4.70;;
55732;SDS011;41637;52.364;9.910;2022-09-21T08:34:29;8.50;;;3.80;;
55732;SDS011;41637;52.364;9.910;2022-09-21T08:36:55;9.30;;;4.40;;
55732;SDS011;41637;52.364;9.910;2022-09-21T08:39:22;10.50;;;4.40;;
55732;SDS011;41637;52.364;9.910;2022-09-21T08:41:56;8.60;;;4.10;;
55732;SDS011;41637;52.364;9.910;2022-09-21T08:44:39;8.60;;;4.50;;
55732;SDS011;41637;52.364;9.910;2022-09-21T08:47:10;10.30;;;4.60;;
55732;SDS011;41637;52.364;9.910;2022-09-21T08:49:44;8.90;;;3.80;;
55732;SDS011;41637;52.364;9.910;2022-09-21T08:52:16;12.00;;;4.30;;
55732;SDS011;41637;52.364;9.910;2022-09-21T08:57:16;8.20;;;3.50;;
55732;SDS011;41637;52.364;9.910;2022-09-21T08:59:45;10.20;;;3.70;;
55732;SDS011;41637;52.364;9.910;2022-09-21T09:22:17;9.60;;;4.10;;
55732;SDS011;41637;52.364;9.910;2022-09-21T09:24:59;9.70;;;3.60;;
55732;SDS011;41637;52.364;9.910;2022-09-21T09:27:31;9.40;;;4.20;;
55732;SDS011;41637;52.364;9.910;2022-09-21T09:30:15;8.20;;;3.50;;
55732;SDS011;41637;52.364;9.910;2022-09-21T09:38:03;8.00;;;3.10;;
55732;SDS011;41637;52.364;9.910;2022-09-21T09:41:02;13.60;;;4.10;;
55732;SDS011;41637;52.364;9.910;2022-09-21T09:52:23;8.20;;;2.20;;
55732;SDS011;41637;52.364;9.910;2022-09-21T09:54:50;7.10;;;2.20;;
55732;SDS011;41637;52.364;9.910;2022-09-21T09:57:23;8.20;;;2.40;;
55732;SDS011;41637;52.364;9.910;2022-09-21T10:00:01;8.10;;;2.00;;
55732;SDS011;41637;52.364;9.910;2022-09-21T10:02:35;5.50;;;1.60;;
55732;SDS011;41637;52.364;9.910;2022-09-21T10:07:57;7.80;;;1.80;;
55732;SDS011;41637;52.364;9.910;2022-09-21T10:12:55;8.30;;;1.70;;
55732;SDS011;41637;52.364;9.910;2022-09-21T10:15:37;8.60;;;1.90;;
55732;SDS011;41637;52.364;9.910;2022-09-21T10:18:21;11.80;;;1.70;;
55732;SDS011;41637;52.364;9.910;2022-09-21T10:20:57;6.30;;;2.00;;
55732;SDS011;41637;52.364;9.910;2022-09-21T10:23:26;10.10;;;2.10;;
55732;SDS011;41637;52.364;9.910;2022-09-21T10:26:07;8.00;;;2.00;;
55732;SDS011;41637;52.364;9.910;2022-09-21T10:28:56;7.20;;;1.70;;
55732;SDS011;41637;52.364;9.910;2022-09-21T10:31:25;6.70;;;1.60;;
55732;SDS011;41637;52.364;9.910;2022-09-21T10:36:36;4.80;;;1.60;;
55732;SDS011;41637;52.364;9.910;2022-09-21T10:39:11;6.60;;;1.70;;
55732;SDS011;41637;52.364;9.910;2022-09-21T10:41:52;5.00;;;1.40;;
55732;SDS011;41637;52.364;9.910;2022-09-21T10:44:38;5.60;;;1.50;;
55732;SDS011;41637;52.364;9.910;2022-09-21T10:47:21;7.00;;;1.50;;
55732;SDS011;41637;52.364;9.910;2022-09-21T10:49:55;2.90;;;1.10;;
55732;SDS011;41637;52.364;9.910;2022-09-21T10:52:24;9.30;;;1.50;;
55732;SDS011;41637;52.364;9.910;2022-09-21T10:55:15;7.80;;;2.30;;
55732;SDS011;41637;52.364;9.910;2022-09-21T10:57:46;6.80;;;1.70;;
55732;SDS011;41637;52.364;9.910;2022-09-21T11:02:51;6.60;;;1.20;;
55732;SDS011;41637;52.364;9.910;2022-09-21T11:05:33;5.00;;;0.90;;
55732;SDS011;41637;52.364;9.910;2022-09-21T11:13:28;6.10;;;1.20;;
55732;SDS011;41637;52.364;9.910;2022-09-21T11:16:15;4.80;;;1.50;;
55732;SDS011;41637;52.364;9.910;2022-09-21T11:18:58;5.10;;;1.50;;
55732;SDS011;41637;52.364;9.910;2022-09-21T11:21:40;3.00;;;0.90;;
55732;SDS011;41637;52.364;9.910;2022-09-21T11:24:15;3.90;;;0.90;;
55732;SDS011;41637;52.364;9.910;2022-09-21T11:35:23;5.50;;;1.20;;
55732;SDS011;41637;52.364;9.910;2022-09-21T11:41:34;3.90;;;1.00;;
55732;SDS011;41637;52.364;9.910;2022-09-21T11:44:26;6.50;;;1.20;;
55732;SDS011;41637;52.364;9.910;2022-09-21T11:47:08;4.00;;;1.00;;
55732;SDS011;41637;52.364;9.910;2022-09-21T11:49:55;5.50;;;1.30;;
55732;SDS011;41637;52.364;9.910;2022-09-21T11:58:12;3.80;;;0.90;;
55732;SDS011;41637;52.364;9.910;2022-09-21T12:12:20;3.90;;;0.90;;
55732;SDS011;41637;52.364;9.910;2022-09-21T12:15:02;3.80;;;1.00;;
55732;SDS011;41637;52.364;9.910;2022-09-21T12:20:30;4.60;;;0.90;;
55732;SDS011;41637;52.364;9.910;2022-09-21T12:23:15;3.70;;;1.10;;
55732;SDS011;41637;52.364;9.910;2022-09-21T12:25:48;3.80;;;0.90;;
55732;SDS011;41637;52.364;9.910;2022-09-21T12:28:32;4.60;;;1.00;;
55732;SDS011;41637;52.364;9.910;2022-09-21T12:31:09;3.80;;;1.00;;
55732;SDS011;41637;52.364;9.910;2022-09-21T12:33:48;3.80;;;0.80;;
55732;SDS011;41637;52.364;9.910;2022-09-21T12:36:24;5.00;;;1.20;;
55732;SDS011;41637;52.364;9.910;2022-09-21T12:39:10;2.80;;;0.80;;
55732;SDS011;41637;52.364;9.910;2022-09-21T12:41:50;3.20;;;0.80;;
55732;SDS011;41637;52.364;9.910;2022-09-21T12:44:23;4.20;;;0.90;;
55732;SDS011;41637;52.364;9.910;2022-09-21T12:47:00;3.40;;;0.80;;
55732;SDS011;41637;52.364;9.910;2022-09-21T12:49:42;4.70;;;1.20;;
55732;SDS011;41637;52.364;9.910;2022-09-21T12:52:17;4.40;;;1.00;;
55732;SDS011;41637;52.364;9.910;2022-09-21T12:55:06;4.40;;;1.00;;
55732;SDS011;41637;52.364;9.910;2022-09-21T12:58:14;3.80;;;1.00;;
55732;SDS011;41637;52.364;9.910;2022-09-21T13:09:16;3.80;;;1.00;;
55732;SDS011;41637;52.364;9.910;2022-09-21T13:11:50;6.50;;;1.10;;
55732;SDS011;41637;52.364;9.910;2022-09-21T13:14:17;3.80;;;1.00;;
55732;SDS011;41637;52.364;9.910;2022-09-21T13:16:43;3.90;;;0.90;;
55732;SDS011;41637;52.364;9.910;2022-09-21T13:19:20;2.90;;;0.90;;
55732;SDS011;41637;52.364;9.910;2022-09-21T13:24:39;2.60;;;0.60;;
55732;SDS011;41637;52.364;9.910;2022-09-21T13:27:08;4.80;;;0.70;;
55732;SDS011;41637;52.364;9.910;2022-09-21T13:29:35;5.00;;;1.00;;
55732;SDS011;41637;52.364;9.910;2022-09-21T13:34:41;3.70;;;0.90;;
55732;SDS011;41637;52.364;9.910;2022-09-21T13:45:00;4.50;;;0.90;;
55732;SDS011;41637;52.364;9.910;2022-09-21T13:47:49;16.00;;;10.60;;
55732;SDS011;41637;52.364;9.910;2022-09-21T13:50:23;5.40;;;1.90;;
55732;SDS011;41637;52.364;9.910;2022-09-21T13:53:17;3.60;;;1.10;;
55732;SDS011;41637;52.364;9.910;2022-09-21T13:56:27;5.80;;;1.30;;
55732;SDS011;41637;52.364;9.910;2022-09-21T13:59:36;8.00;;;4.20;;
55732;SDS011;41637;52.364;9.910;2022-09-21T14:02:09;7.70;;;1.70;;
55732;SDS011;41637;52.364;9.910;2022-09-21T14:04:49;6.60;;;3.80;;
55732;SDS011;41637;52.364;9.910;2022-09-21T14:07:17;7.80;;;3.80;;
55732;SDS011;41637;52.364;9.910;2022-09-21T14:09:55;16.40;;;13.00;;
55732;SDS011;41637;52.364;9.910;2022-09-21T14:12:26;8.80;;;5.80;;
55732;SDS011;41637;52.364;9.910;2022-09-21T14:15:22;4.90;;;1.40;;
55732;SDS011;41637;52.364;9.910;2022-09-21T14:23:36;3.10;;;0.80;;
55732;SDS011;41637;52.364;9.910;2022-09-21T14:26:19;4.90;;;2.00;;
55732;SDS011;41637;52.364;9.910;2022-09-21T14:29:04;4.40;;;1.10;;
55732;SDS011;41637;52.364;9.910;2022-09-21T14:31:38;5.80;;;1.80;;
55732;SDS011;41637;52.364;9.910;2022-09-21T14:34:09;3.30;;;0.70;;
55732;SDS011;41637;52.364;9.910;2022-09-21T14:36:41;3.10;;;1.10;;
55732;SDS011;41637;52.364;9.910;2022-09-21T14:39:16;1.80;;;0.50;;
55732;SDS011;41637;52.364;9.910;2022-09-21T14:41:48;2.90;;;0.80;;
55732;SDS011;41637;52.364;9.910;2022-09-21T14:44:18;3.40;;;1.00;;
55732;SDS011;41637;52.364;9.910;2022-09-21T14:49:32;4.70;;;1.00;;
55732;SDS011;41637;52.364;9.910;2022-09-21T14:52:17;3.10;;;0.70;;
55732;SDS011;41637;52.364;9.910;2022-09-21T14:55:04;2.60;;;0.80;;
55732;SDS011;41637;52.364;9.910;2022-09-21T15:00:45;3.40;;;0.70;;
55732;SDS011;41637;52.364;9.910;2022-09-21T15:06:14;3.50;;;0.90;;
55732;SDS011;41637;52.364;9.910;2022-09-21T15:12:14;3.80;;;0.80;;
55732;SDS011;41637;52.364;9.910;2022-09-21T15:14:45;3.00;;;0.60;;
55732;SDS011;41637;52.364;9.910;2022-09-21T15:17:22;2.60;;;0.50;;
55732;SDS011;41637;52.364;9.910;2022-09-21T15:19:50;2.40;;;0.70;;
55732;SDS011;41637;52.364;9.910;2022-09-21T15:22:20;2.60;;;0.60;;
55732;SDS011;41637;52.364;9.910;2022-09-21T15:27:15;4.60;;;1.00;;
55732;SDS011;41637;52.364;9.910;2022-09-21T15:29:44;3.50;;;0.60;;
55732;SDS011;41637;52.364;9.910;2022-09-21T15:32:23;3.70;;;0.70;;
55732;SDS011;41637;52.364;9.910;2022-09-21T15:34:59;3.70;;;0.70;;
55732;SDS011;41637;52.364;9.910;2022-09-21T15:37:27;4.10;;;0.80;;
55732;SDS011;41637;52.364;9.910;2022-09-21T15:40:02;3.10;;;0.70;;
55732;SDS011;41637;52.364;9.910;2022-09-21T15:42:31;3.30;;;0.80;;
55732;SDS011;41637;52.364;9.910;2022-09-21T15:45:12;3.50;;;0.70;;
55732;SDS011;41637;52.364;9.910;2022-09-21T15:47:41;2.70;;;0.80;;
55732;SDS011;41637;52.364;9.910;2022-09-21T15:50:11;3.70;;;0.70;;
55732;SDS011;41637;52.364;9.910;2022-09-21T15:52:40;2.80;;;0.80;;
55732;SDS011;41637;52.364;9.910;2022-09-21T15:55:15;2.90;;;0.80;;
55732;SDS011;41637;52.364;9.910;2022-09-21T15:57:53;4.80;;;0.80;;
55732;SDS011;41637;52.364;9.910;2022-09-21T16:00:25;2.80;;;0.70;;
55732;SDS011;41637;52.364;9.910;2022-09-21T16:03:01;3.40;;;0.80;;
55732;SDS011;41637;52.364;9.910;2022-09-21T16:05:45;5.50;;;1.10;;
55732;SDS011;41637;52.364;9.910;2022-09-21T16:08:26;5.90;;;1.10;;
55732;SDS011;41637;52.364;9.910;2022-09-21T16:14:15;8.10;;;1.20;;
55732;SDS011;41637;52.364;9.910;2022-09-21T16:22:24;4.70;;;1.80;;
55732;SDS011;41637;52.364;9.910;2022-09-21T16:25:12;7.70;;;3.50;;
55732;SDS011;41637;52.364;9.910;2022-09-21T16:28:04;5.80;;;2.10;;
55732;SDS011;41637;52.364;9.910;2022-09-21T16:30:52;9.90;;;4.50;;
55732;SDS011;41637;52.364;9.910;2022-09-21T16:33:36;8.20;;;4.20;;
55732;SDS011;41637;52.364;9.910;2022-09-21T16:38:53;9.60;;;5.00;;
55732;SDS011;41637;52.364;9.910;2022-09-21T16:41:20;8.00;;;4.40;;
55732;SDS011;41637;52.364;9.910;2022-09-21T16:43:49;9.20;;;4.20;;
55732;SDS011;41637;52.364;9.910;2022-09-21T16:46:17;10.50;;;6.20;;
55732;SDS011;41637;52.364;9.910;2022-09-21T16:48:43;5.60;;;2.10;;
55732;SDS011;41637;52.364;9.910;2022-09-21T16:51:11;5.60;;;1.60;;
55732;SDS011;41637;52.364;9.910;2022-09-21T16:53:39;5.50;;;2.40;;
55732;SDS011;41637;52.364;9.910;2022-09-21T16:56:12;4.30;;;1.60;;
55732;SDS011;41637;52.364;9.910;2022-09-21T16:58:43;3.00;;;0.90;;
55732;SDS011;41637;52.364;9.910;2022-09-21T17:01:11;2.80;;;0.90;;
55732;SDS011;41637;52.364;9.910;2022-09-21T17:03:40;3.80;;;1.00;;
55732;SDS011;41637;52.364;9.910;2022-09-21T17:06:13;4.80;;;1.10;;
55732;SDS011;41637;52.364;9.910;2022-09-21T17:08:43;6.00;;;1.10;;
55732;SDS011;41637;52.364;9.910;2022-09-21T17:11:13;6.80;;;1.40;;
55732;SDS011;41637;52.364;9.910;2022-09-21T17:13:45;6.50;;;1.30;;
55732;SDS011;41637;52.364;9.910;2022-09-21T17:16:13;4.50;;;1.00;;
55732;SDS011;41637;52.364;9.910;2022-09-21T17:18:43;3.80;;;1.30;;
55732;SDS011;41637;52.364;9.910;2022-09-21T17:21:11;5.00;;;1.10;;
55732;SDS011;41637;52.364;9.910;2022-09-21T17:23:38;3.90;;;1.10;;
55732;SDS011;41637;52.364;9.910;2022-09-21T17:26:15;4.70;;;1.20;;
55732;SDS011;41637;52.364;9.910;2022-09-21T17:28:44;4.50;;;0.80;;
55732;SDS011;41637;52.364;9.910;2022-09-21T17:31:11;5.40;;;0.80;;
55732;SDS011;41637;52.364;9.910;2022-09-21T17:33:39;5.60;;;0.90;;
55732;SDS011;41637;52.364;9.910;2022-09-21T17:36:10;5.60;;;1.40;;
55732;SDS011;41637;52.364;9.910;2022-09-21T17:38:38;5.50;;;1.20;;
55732;SDS011;41637;52.364;9.910;2022-09-21T17:41:05;5.60;;;1.10;;
55732;SDS011;41637;52.364;9.910;2022-09-21T17:43:50;5.60;;;1.70;;
55732;SDS011;41637;52.364;9.910;2022-09-21T17:46:26;7.00;;;1.30;;
55732;SDS011;41637;52.364;9.910;2022-09-21T17:48:54;7.20;;;1.40;;
55732;SDS011;41637;52.364;9.910;2022-09-21T17:51:20;5.80;;;1.30;;
55732;SDS011;41637;52.364;9.910;2022-09-21T17:54:06;7.30;;;1.40;;
55732;SDS011;41637;52.364;9.910;2022-09-21T17:56:35;7.20;;;1.50;;
55732;SDS011;41637;52.364;9.910;2022-09-21T18:01:51;6.50;;;1.60;;
55732;SDS011;41637;52.364;9.910;2022-09-21T18:04:18;4.50;;;1.50;;
55732;SDS011;41637;52.364;9.910;2022-09-21T18:06:45;5.70;;;1.90;;
55732;SDS011;41637;52.364;9.910;2022-09-21T18:09:12;6.50;;;1.60;;
55732;SDS011;41637;52.364;9.910;2022-09-21T18:17:09;6.50;;;1.80;;
55732;SDS011;41637;52.364;9.910;2022-09-21T18:20:09;7.50;;;2.30;;
55732;SDS011;41637;52.364;9.910;2022-09-21T18:25:31;9.70;;;3.10;;
55732;SDS011;41637;52.364;9.910;2022-09-21T18:28:01;8.50;;;2.50;;
55732;SDS011;41637;52.364;9.910;2022-09-21T18:31:56;6.40;;;2.60;;
55732;SDS011;41637;52.364;9.910;2022-09-21T18:34:03;8.80;;;2.70;;